sensor_id;sensor_type;location;lat;lon;timestamp;temperature;humidity
11093;DHT22;5600;50.864;6.102;2022-10-18T00:02:41;14.90;99.90
11093;DHT22;5600;50.864;6.102;2022-10-18T00:05:41;14.90;99.90
11093;DHT22;5600;50.864;6.102;2022-10-18T00:08:42;14.90;99.90
11093;DHT22;5600;50.864;6.102;2022-10-18T00:11:43;14.90;99.90
11093;DHT22;5600;50.864;6.102;2022-10-18T00:14:43;14.90;99.90
11093;DHT22;5600;50.864;6.102;2022-10-18T00:17:44;14.90;99.90
11093;DHT22;5600;50.864;6.102;2022-10-18T00:20:45;14.90;99.90
11093;DHT22;5600;50.864;6.102;2022-10-18T00:23:47;14.90;99.90
11093;DHT22;5600;50.864;6.102;2022-10-18T00:26:48;14.80;99.90
11093;DHT22;5600;50.864;6.102;2022-10-18T00:29:52;14.90;99.90
11093;DHT22;5600;50.864;6.102;2022-10-18T00:32:52;14.90;99.90
11093;DHT22;5600;50.864;6.102;2022-10-18T00:35:53;14.90;99.90
11093;DHT22;5600;50.864;6.102;2022-10-18T00:38:53;14.90;99.90
11093;DHT22;5600;50.864;6.102;2022-10-18T00:41:54;14.90;99.90
11093;DHT22;5600;50.864;6.102;2022-10-18T00:45:16;14.90;99.90
11093;DHT22;5600;50.864;6.102;2022-10-18T00:48:18;14.90;99.90
11093;DHT22;5600;50.864;6.102;2022-10-18T00:51:20;14.90;99.90
11093;DHT22;5600;50.864;6.102;2022-10-18T00:54:22;14.90;99.90
11093;DHT22;5600;50.864;6.102;2022-10-18T00:57:24;14.90;99.90
11093;DHT22;5600;50.864;6.102;2022-10-18T01:00:25;14.80;99.90
11093;DHT22;5600;50.864;6.102;2022-10-18T01:03:26;14.80;99.90
11093;DHT22;5600;50.864;6.102;2022-10-18T01:06:27;14.80;99.90
11093;DHT22;5600;50.864;6.102;2022-10-18T01:09:54;14.80;99.90
11093;DHT22;5600;50.864;6.102;2022-10-18T01:20:01;15.00;99.90
11093;DHT22;5600;50.864;6.102;2022-10-18T01:23:18;15.00;99.90
11093;DHT22;5600;50.864;6.102;2022-10-18T01:33:42;15.00;99.90
11093;DHT22;5600;50.864;6.102;2022-10-18T01:36:48;15.00;99.90
11093;DHT22;5600;50.864;6.102;2022-10-18T01:39:53;15.00;99.90
11093;DHT22;5600;50.864;6.102;2022-10-18T01:42:55;15.00;99.90
11093;DHT22;5600;50.864;6.102;2022-10-18T01:45:56;15.00;99.90
11093;DHT22;5600;50.864;6.102;2022-10-18T01:48:59;14.90;99.90
11093;DHT22;5600;50.864;6.102;2022-10-18T01:51:59;14.90;99.90
11093;DHT22;5600;50.864;6.102;2022-10-18T01:55:02;14.90;99.90
11093;DHT22;5600;50.864;6.102;2022-10-18T01:58:27;14.80;99.90
11093;DHT22;5600;50.864;6.102;2022-10-18T02:05:13;14.90;99.90
11093;DHT22;5600;50.864;6.102;2022-10-18T02:11:33;14.80;99.90
11093;DHT22;5600;50.864;6.102;2022-10-18T02:14:36;14.80;99.90
11093;DHT22;5600;50.864;6.102;2022-10-18T02:17:39;14.80;99.90
11093;DHT22;5600;50.864;6.102;2022-10-18T02:20:41;14.80;99.90
11093;DHT22;5600;50.864;6.102;2022-10-18T02:23:44;14.80;99.90
11093;DHT22;5600;50.864;6.102;2022-10-18T02:26:45;14.80;99.90
11093;DHT22;5600;50.864;6.102;2022-10-18T02:29:46;14.80;99.90
11093;DHT22;5600;50.864;6.102;2022-10-18T02:33:03;14.80;99.90
11093;DHT22;5600;50.864;6.102;2022-10-18T02:36:18;14.80;99.90
11093;DHT22;5600;50.864;6.102;2022-10-18T02:39:25;14.80;99.90
11093;DHT22;5600;50.864;6.102;2022-10-18T02:42:36;14.80;99.90
11093;DHT22;5600;50.864;6.102;2022-10-18T02:45:37;14.80;99.90
11093;DHT22;5600;50.864;6.102;2022-10-18T02:48:38;14.80;99.90
11093;DHT22;5600;50.864;6.102;2022-10-18T02:51:39;14.80;99.90
11093;DHT22;5600;50.864;6.102;2022-10-18T02:54:39;14.80;99.90
11093;DHT22;5600;50.864;6.102;2022-10-18T02:57:40;14.80;99.90
11093;DHT22;5600;50.864;6.102;2022-10-18T03:00:40;14.80;99.90
11093;DHT22;5600;50.864;6.102;2022-10-18T03:03:41;14.80;99.90
11093;DHT22;5600;50.864;6.102;2022-10-18T03:06:42;14.80;99.90
11093;DHT22;5600;50.864;6.102;2022-10-18T03:09:42;14.80;99.90
11093;DHT22;5600;50.864;6.102;2022-10-18T03:12:43;14.80;99.90
11093;DHT22;5600;50.864;6.102;2022-10-18T03:15:44;14.80;99.90
11093;DHT22;5600;50.864;6.102;2022-10-18T03:18:44;14.80;99.90
11093;DHT22;5600;50.864;6.102;2022-10-18T03:21:45;14.80;99.90
11093;DHT22;5600;50.864;6.102;2022-10-18T03:24:45;14.80;99.90
11093;DHT22;5600;50.864;6.102;2022-10-18T03:27:46;14.80;99.90
11093;DHT22;5600;50.864;6.102;2022-10-18T03:30:47;14.90;99.90
11093;DHT22;5600;50.864;6.102;2022-10-18T03:33:47;15.00;99.90
11093;DHT22;5600;50.864;6.102;2022-10-18T03:36:48;15.00;99.90
11093;DHT22;5600;50.864;6.102;2022-10-18T03:39:48;14.90;99.90
11093;DHT22;5600;50.864;6.102;2022-10-18T03:42:49;14.90;99.90
11093;DHT22;5600;50.864;6.102;2022-10-18T03:45:50;14.90;99.90
11093;DHT22;5600;50.864;6.102;2022-10-18T03:48:51;14.90;99.90
11093;DHT22;5600;50.864;6.102;2022-10-18T03:51:52;14.90;99.90
11093;DHT22;5600;50.864;6.102;2022-10-18T03:54:52;14.90;99.90
11093;DHT22;5600;50.864;6.102;2022-10-18T03:57:53;14.90;99.90
11093;DHT22;5600;50.864;6.102;2022-10-18T04:00:54;14.90;99.90
11093;DHT22;5600;50.864;6.102;2022-10-18T04:03:54;14.90;99.90
11093;DHT22;5600;50.864;6.102;2022-10-18T04:06:55;14.90;99.90
11093;DHT22;5600;50.864;6.102;2022-10-18T04:09:56;14.90;99.90
11093;DHT22;5600;50.864;6.102;2022-10-18T04:12:56;15.00;99.90
11093;DHT22;5600;50.864;6.102;2022-10-18T04:15:57;15.00;99.90
11093;DHT22;5600;50.864;6.102;2022-10-18T04:18:58;14.90;99.90
11093;DHT22;5600;50.864;6.102;2022-10-18T04:21:58;15.00;99.90
11093;DHT22;5600;50.864;6.102;2022-10-18T04:24:59;15.00;99.90
11093;DHT22;5600;50.864;6.102;2022-10-18T04:28:00;15.00;99.90
11093;DHT22;5600;50.864;6.102;2022-10-18T04:31:01;15.00;99.90
11093;DHT22;5600;50.864;6.102;2022-10-18T04:34:02;15.10;99.90
11093;DHT22;5600;50.864;6.102;2022-10-18T04:37:03;15.10;99.90
11093;DHT22;5600;50.864;6.102;2022-10-18T04:40:04;15.00;99.90
11093;DHT22;5600;50.864;6.102;2022-10-18T04:43:05;15.00;99.90
11093;DHT22;5600;50.864;6.102;2022-10-18T04:46:06;15.00;99.90
11093;DHT22;5600;50.864;6.102;2022-10-18T04:49:07;15.00;99.90
11093;DHT22;5600;50.864;6.102;2022-10-18T04:52:07;15.00;99.90
11093;DHT22;5600;50.864;6.102;2022-10-18T04:55:08;15.00;99.90
11093;DHT22;5600;50.864;6.102;2022-10-18T04:58:09;15.10;99.90
11093;DHT22;5600;50.864;6.102;2022-10-18T05:01:10;15.10;99.90
11093;DHT22;5600;50.864;6.102;2022-10-18T05:04:10;15.20;99.90
11093;DHT22;5600;50.864;6.102;2022-10-18T05:07:11;15.20;99.90
11093;DHT22;5600;50.864;6.102;2022-10-18T05:10:12;15.20;99.90
11093;DHT22;5600;50.864;6.102;2022-10-18T05:13:12;15.20;99.90
11093;DHT22;5600;50.864;6.102;2022-10-18T05:16:13;15.40;99.90
11093;DHT22;5600;50.864;6.102;2022-10-18T05:19:15;15.50;99.90
11093;DHT22;5600;50.864;6.102;2022-10-18T05:22:16;15.50;99.90
11093;DHT22;5600;50.864;6.102;2022-10-18T05:25:16;15.50;99.90
11093;DHT22;5600;50.864;6.102;2022-10-18T05:28:17;15.40;99.90
11093;DHT22;5600;50.864;6.102;2022-10-18T05:31:17;15.60;99.90
11093;DHT22;5600;50.864;6.102;2022-10-18T05:34:18;15.50;99.90
11093;DHT22;5600;50.864;6.102;2022-10-18T05:37:20;15.50;99.90
11093;DHT22;5600;50.864;6.102;2022-10-18T05:40:21;15.40;99.90
11093;DHT22;5600;50.864;6.102;2022-10-18T05:43:21;15.40;99.90
11093;DHT22;5600;50.864;6.102;2022-10-18T05:46:22;15.40;99.90
11093;DHT22;5600;50.864;6.102;2022-10-18T05:49:23;15.50;99.90
11093;DHT22;5600;50.864;6.102;2022-10-18T05:52:23;15.50;99.90
11093;DHT22;5600;50.864;6.102;2022-10-18T05:55:24;15.50;99.90
11093;DHT22;5600;50.864;6.102;2022-10-18T05:58:25;15.50;99.90
11093;DHT22;5600;50.864;6.102;2022-10-18T06:01:25;15.50;99.90
11093;DHT22;5600;50.864;6.102;2022-10-18T06:04:26;15.60;99.90
11093;DHT22;5600;50.864;6.102;2022-10-18T06:07:26;15.50;99.90
11093;DHT22;5600;50.864;6.102;2022-10-18T06:10:27;15.50;99.90
11093;DHT22;5600;50.864;6.102;2022-10-18T06:13:28;15.50;99.90
11093;DHT22;5600;50.864;6.102;2022-10-18T06:16:29;16.00;99.90
11093;DHT22;5600;50.864;6.102;2022-10-18T06:19:29;15.50;99.90
11093;DHT22;5600;50.864;6.102;2022-10-18T06:22:30;15.50;99.90
11093;DHT22;5600;50.864;6.102;2022-10-18T06:25:30;15.40;99.90
11093;DHT22;5600;50.864;6.102;2022-10-18T06:28:33;15.40;99.90
11093;DHT22;5600;50.864;6.102;2022-10-18T06:31:34;15.40;99.90
11093;DHT22;5600;50.864;6.102;2022-10-18T06:34:35;15.40;99.90
11093;DHT22;5600;50.864;6.102;2022-10-18T06:37:35;15.50;99.90
11093;DHT22;5600;50.864;6.102;2022-10-18T06:40:37;15.50;99.90
11093;DHT22;5600;50.864;6.102;2022-10-18T06:43:38;15.40;99.90
11093;DHT22;5600;50.864;6.102;2022-10-18T06:46:43;15.40;99.90
11093;DHT22;5600;50.864;6.102;2022-10-18T06:49:44;15.40;99.90
11093;DHT22;5600;50.864;6.102;2022-10-18T06:52:45;15.50;99.90
11093;DHT22;5600;50.864;6.102;2022-10-18T06:55:48;15.60;99.90
11093;DHT22;5600;50.864;6.102;2022-10-18T06:58:49;15.50;99.90
11093;DHT22;5600;50.864;6.102;2022-10-18T07:01:49;15.50;99.90
11093;DHT22;5600;50.864;6.102;2022-10-18T07:04:50;15.50;99.90
11093;DHT22;5600;50.864;6.102;2022-10-18T07:07:51;15.50;99.90
11093;DHT22;5600;50.864;6.102;2022-10-18T07:10:52;15.50;99.90
11093;DHT22;5600;50.864;6.102;2022-10-18T07:13:54;15.50;99.90
11093;DHT22;5600;50.864;6.102;2022-10-18T07:17:00;15.50;99.90
11093;DHT22;5600;50.864;6.102;2022-10-18T07:20:01;15.60;99.90
11093;DHT22;5600;50.864;6.102;2022-10-18T07:23:03;15.60;99.90
11093;DHT22;5600;50.864;6.102;2022-10-18T07:29:16;15.70;99.90
11093;DHT22;5600;50.864;6.102;2022-10-18T07:32:16;15.70;99.90
11093;DHT22;5600;50.864;6.102;2022-10-18T07:35:17;15.80;99.90
11093;DHT22;5600;50.864;6.102;2022-10-18T07:38:18;15.90;99.90
11093;DHT22;5600;50.864;6.102;2022-10-18T07:41:19;15.90;99.90
11093;DHT22;5600;50.864;6.102;2022-10-18T07:44:20;15.90;99.90
11093;DHT22;5600;50.864;6.102;2022-10-18T07:47:21;15.90;99.90
11093;DHT22;5600;50.864;6.102;2022-10-18T07:50:23;15.90;99.90
11093;DHT22;5600;50.864;6.102;2022-10-18T07:53:24;16.00;99.90
11093;DHT22;5600;50.864;6.102;2022-10-18T07:56:25;16.00;99.90
11093;DHT22;5600;50.864;6.102;2022-10-18T07:59:25;16.10;99.90
11093;DHT22;5600;50.864;6.102;2022-10-18T08:02:26;16.20;99.90
11093;DHT22;5600;50.864;6.102;2022-10-18T08:05:28;16.10;99.90
11093;DHT22;5600;50.864;6.102;2022-10-18T08:08:30;16.10;99.90
11093;DHT22;5600;50.864;6.102;2022-10-18T08:11:31;16.10;99.90
11093;DHT22;5600;50.864;6.102;2022-10-18T08:14:32;16.10;99.90
11093;DHT22;5600;50.864;6.102;2022-10-18T08:17:33;16.30;99.90
11093;DHT22;5600;50.864;6.102;2022-10-18T08:20:33;16.30;99.90
11093;DHT22;5600;50.864;6.102;2022-10-18T08:23:37;16.30;99.90
11093;DHT22;5600;50.864;6.102;2022-10-18T08:26:38;16.30;99.90
11093;DHT22;5600;50.864;6.102;2022-10-18T08:29:38;16.20;99.90
11093;DHT22;5600;50.864;6.102;2022-10-18T08:32:39;16.20;99.90
11093;DHT22;5600;50.864;6.102;2022-10-18T08:35:39;16.20;99.90
11093;DHT22;5600;50.864;6.102;2022-10-18T08:38:41;16.30;99.90
11093;DHT22;5600;50.864;6.102;2022-10-18T08:44:52;16.20;99.90
11093;DHT22;5600;50.864;6.102;2022-10-18T08:47:55;16.20;99.90
11093;DHT22;5600;50.864;6.102;2022-10-18T08:50:57;16.20;99.90
11093;DHT22;5600;50.864;6.102;2022-10-18T08:54:10;16.20;99.90
11093;DHT22;5600;50.864;6.102;2022-10-18T08:57:14;16.30;99.90
11093;DHT22;5600;50.864;6.102;2022-10-18T09:00:26;16.30;99.90
11093;DHT22;5600;50.864;6.102;2022-10-18T09:14:27;16.30;99.90
11093;DHT22;5600;50.864;6.102;2022-10-18T09:17:55;16.40;99.90
11093;DHT22;5600;50.864;6.102;2022-10-18T09:21:00;16.50;99.90
11093;DHT22;5600;50.864;6.102;2022-10-18T09:24:11;16.70;99.90
11093;DHT22;5600;50.864;6.102;2022-10-18T09:27:17;16.70;99.90
11093;DHT22;5600;50.864;6.102;2022-10-18T09:33:55;16.80;99.90
11093;DHT22;5600;50.864;6.102;2022-10-18T09:36:58;16.70;99.90
11093;DHT22;5600;50.864;6.102;2022-10-18T09:43:24;16.70;99.90
11093;DHT22;5600;50.864;6.102;2022-10-18T09:46:30;16.70;99.90
11093;DHT22;5600;50.864;6.102;2022-10-18T09:49:36;16.80;99.90
11093;DHT22;5600;50.864;6.102;2022-10-18T09:52:51;16.80;99.90
11093;DHT22;5600;50.864;6.102;2022-10-18T09:55:58;16.90;99.90
11093;DHT22;5600;50.864;6.102;2022-10-18T09:58:59;15.80;99.90
11093;DHT22;5600;50.864;6.102;2022-10-18T10:02:00;16.90;99.90
11093;DHT22;5600;50.864;6.102;2022-10-18T10:05:01;16.90;99.90
11093;DHT22;5600;50.864;6.102;2022-10-18T10:08:01;17.10;99.90
11093;DHT22;5600;50.864;6.102;2022-10-18T10:11:03;17.10;99.90
11093;DHT22;5600;50.864;6.102;2022-10-18T10:14:15;17.20;99.90
11093;DHT22;5600;50.864;6.102;2022-10-18T10:17:24;17.30;99.90
11093;DHT22;5600;50.864;6.102;2022-10-18T10:20:52;17.30;99.90
11093;DHT22;5600;50.864;6.102;2022-10-18T10:23:55;17.30;99.90
11093;DHT22;5600;50.864;6.102;2022-10-18T10:26:59;17.30;99.90
11093;DHT22;5600;50.864;6.102;2022-10-18T10:30:03;17.50;99.90
11093;DHT22;5600;50.864;6.102;2022-10-18T10:33:30;17.50;99.90
11093;DHT22;5600;50.864;6.102;2022-10-18T10:36:33;17.50;99.90
11093;DHT22;5600;50.864;6.102;2022-10-18T10:39:34;17.50;99.90
11093;DHT22;5600;50.864;6.102;2022-10-18T10:46:05;17.60;99.90
11093;DHT22;5600;50.864;6.102;2022-10-18T10:49:20;18.00;99.90
11093;DHT22;5600;50.864;6.102;2022-10-18T10:52:24;18.00;99.90
11093;DHT22;5600;50.864;6.102;2022-10-18T10:55:33;17.90;99.90
11093;DHT22;5600;50.864;6.102;2022-10-18T10:58:37;17.80;99.90
11093;DHT22;5600;50.864;6.102;2022-10-18T11:01:39;18.00;99.90
11093;DHT22;5600;50.864;6.102;2022-10-18T11:04:41;18.00;99.90
11093;DHT22;5600;50.864;6.102;2022-10-18T11:07:44;18.00;99.90
11093;DHT22;5600;50.864;6.102;2022-10-18T11:11:04;17.90;99.90
11093;DHT22;5600;50.864;6.102;2022-10-18T11:17:33;17.80;99.90
11093;DHT22;5600;50.864;6.102;2022-10-18T11:23:54;18.30;99.90
11093;DHT22;5600;50.864;6.102;2022-10-18T11:27:05;18.50;99.90
11093;DHT22;5600;50.864;6.102;2022-10-18T11:30:17;18.60;99.90
11093;DHT22;5600;50.864;6.102;2022-10-18T11:33:30;18.80;99.90
11093;DHT22;5600;50.864;6.102;2022-10-18T11:43:33;18.90;99.90
11093;DHT22;5600;50.864;6.102;2022-10-18T11:46:57;19.00;99.90
11093;DHT22;5600;50.864;6.102;2022-10-18T11:56:58;18.40;99.90
11093;DHT22;5600;50.864;6.102;2022-10-18T12:03:40;18.30;99.90
11093;DHT22;5600;50.864;6.102;2022-10-18T12:06:47;18.20;99.90
11093;DHT22;5600;50.864;6.102;2022-10-18T12:09:51;18.10;99.90
11093;DHT22;5600;50.864;6.102;2022-10-18T12:12:58;18.20;99.90
11093;DHT22;5600;50.864;6.102;2022-10-18T12:16:02;18.20;99.90
11093;DHT22;5600;50.864;6.102;2022-10-18T12:19:12;18.10;99.90
11093;DHT22;5600;50.864;6.102;2022-10-18T12:22:22;18.10;99.90
11093;DHT22;5600;50.864;6.102;2022-10-18T12:25:27;18.10;99.90
11093;DHT22;5600;50.864;6.102;2022-10-18T12:31:53;18.50;99.90
11093;DHT22;5600;50.864;6.102;2022-10-18T12:35:05;18.50;99.90
11093;DHT22;5600;50.864;6.102;2022-10-18T12:38:17;18.50;99.90
11093;DHT22;5600;50.864;6.102;2022-10-18T12:41:31;18.50;99.90
11093;DHT22;5600;50.864;6.102;2022-10-18T12:44:34;18.60;99.90
11093;DHT22;5600;50.864;6.102;2022-10-18T12:47:35;18.50;99.90
11093;DHT22;5600;50.864;6.102;2022-10-18T12:50:38;18.50;99.90
11093;DHT22;5600;50.864;6.102;2022-10-18T12:53:41;18.60;99.90
11093;DHT22;5600;50.864;6.102;2022-10-18T12:56:43;18.60;99.90
11093;DHT22;5600;50.864;6.102;2022-10-18T12:59:47;18.70;99.90
11093;DHT22;5600;50.864;6.102;2022-10-18T13:06:09;18.80;99.90
11093;DHT22;5600;50.864;6.102;2022-10-18T13:09:19;18.90;99.90
11093;DHT22;5600;50.864;6.102;2022-10-18T13:15:38;18.80;99.90
11093;DHT22;5600;50.864;6.102;2022-10-18T13:18:55;18.70;99.90
11093;DHT22;5600;50.864;6.102;2022-10-18T13:26:00;18.90;99.90
11093;DHT22;5600;50.864;6.102;2022-10-18T13:32:23;19.00;99.90
11093;DHT22;5600;50.864;6.102;2022-10-18T13:35:50;19.00;99.90
11093;DHT22;5600;50.864;6.102;2022-10-18T13:59:06;19.80;99.90
11093;DHT22;5600;50.864;6.102;2022-10-18T14:05:40;19.60;99.90
11093;DHT22;5600;50.864;6.102;2022-10-18T14:12:15;19.10;99.90
11093;DHT22;5600;50.864;6.102;2022-10-18T14:15:26;19.40;99.90
11093;DHT22;5600;50.864;6.102;2022-10-18T14:18:32;19.30;99.90
11093;DHT22;5600;50.864;6.102;2022-10-18T14:21:37;19.20;99.90
11093;DHT22;5600;50.864;6.102;2022-10-18T14:24:47;19.10;99.90
11093;DHT22;5600;50.864;6.102;2022-10-18T14:28:02;19.00;99.90
11093;DHT22;5600;50.864;6.102;2022-10-18T14:31:05;19.00;99.90
11093;DHT22;5600;50.864;6.102;2022-10-18T14:34:13;18.80;99.90
11093;DHT22;5600;50.864;6.102;2022-10-18T14:37:26;18.80;99.90
11093;DHT22;5600;50.864;6.102;2022-10-18T14:40:38;18.60;99.90
11093;DHT22;5600;50.864;6.102;2022-10-18T14:43:39;18.40;99.90
11093;DHT22;5600;50.864;6.102;2022-10-18T14:46:47;18.30;99.90
11093;DHT22;5600;50.864;6.102;2022-10-18T14:49:49;18.20;99.90
11093;DHT22;5600;50.864;6.102;2022-10-18T14:52:50;18.20;99.90
11093;DHT22;5600;50.864;6.102;2022-10-18T14:55:55;18.20;99.90
11093;DHT22;5600;50.864;6.102;2022-10-18T14:59:00;18.20;99.90
11093;DHT22;5600;50.864;6.102;2022-10-18T15:02:23;18.20;99.90
11093;DHT22;5600;50.864;6.102;2022-10-18T15:05:24;18.20;99.90
11093;DHT22;5600;50.864;6.102;2022-10-18T15:08:31;18.10;99.90
11093;DHT22;5600;50.864;6.102;2022-10-18T15:11:34;18.00;99.90
11093;DHT22;5600;50.864;6.102;2022-10-18T15:14:35;17.90;99.90
11093;DHT22;5600;50.864;6.102;2022-10-18T15:17:37;17.90;99.90
11093;DHT22;5600;50.864;6.102;2022-10-18T15:20:39;17.70;99.90
11093;DHT22;5600;50.864;6.102;2022-10-18T15:23:41;17.70;99.90
11093;DHT22;5600;50.864;6.102;2022-10-18T15:26:43;17.60;99.90
11093;DHT22;5600;50.864;6.102;2022-10-18T15:29:44;17.50;99.90
11093;DHT22;5600;50.864;6.102;2022-10-18T15:32:49;17.60;99.90
11093;DHT22;5600;50.864;6.102;2022-10-18T15:35:51;17.60;99.90
11093;DHT22;5600;50.864;6.102;2022-10-18T15:39:02;17.50;99.90
11093;DHT22;5600;50.864;6.102;2022-10-18T15:42:03;17.40;99.90
11093;DHT22;5600;50.864;6.102;2022-10-18T15:48:37;17.10;99.90
11093;DHT22;5600;50.864;6.102;2022-10-18T15:51:47;17.00;99.90
11093;DHT22;5600;50.864;6.102;2022-10-18T15:54:48;17.00;99.90
11093;DHT22;5600;50.864;6.102;2022-10-18T15:57:48;16.90;99.90
11093;DHT22;5600;50.864;6.102;2022-10-18T16:00:50;16.70;99.90
11093;DHT22;5600;50.864;6.102;2022-10-18T16:03:52;16.60;99.90
11093;DHT22;5600;50.864;6.102;2022-10-18T16:06:53;16.50;99.90
11093;DHT22;5600;50.864;6.102;2022-10-18T16:09:55;16.40;99.90
11093;DHT22;5600;50.864;6.102;2022-10-18T16:12:55;16.30;99.90
11093;DHT22;5600;50.864;6.102;2022-10-18T16:15:56;16.10;99.90
11093;DHT22;5600;50.864;6.102;2022-10-18T16:18:59;16.00;99.90
11093;DHT22;5600;50.864;6.102;2022-10-18T16:22:00;15.90;99.90
11093;DHT22;5600;50.864;6.102;2022-10-18T16:25:01;15.70;99.90
11093;DHT22;5600;50.864;6.102;2022-10-18T16:28:01;15.50;99.90
11093;DHT22;5600;50.864;6.102;2022-10-18T16:31:02;15.40;99.90
11093;DHT22;5600;50.864;6.102;2022-10-18T16:34:03;15.30;99.90
11093;DHT22;5600;50.864;6.102;2022-10-18T16:37:04;15.20;99.90
11093;DHT22;5600;50.864;6.102;2022-10-18T16:40:20;15.00;99.90
11093;DHT22;5600;50.864;6.102;2022-10-18T16:43:22;14.90;99.90
11093;DHT22;5600;50.864;6.102;2022-10-18T16:46:26;14.70;99.90
11093;DHT22;5600;50.864;6.102;2022-10-18T16:49:27;14.60;99.90
11093;DHT22;5600;50.864;6.102;2022-10-18T16:52:28;14.50;99.90
11093;DHT22;5600;50.864;6.102;2022-10-18T16:55:28;14.40;99.90
11093;DHT22;5600;50.864;6.102;2022-10-18T16:58:31;14.20;99.90
11093;DHT22;5600;50.864;6.102;2022-10-18T17:01:32;14.10;99.90
11093;DHT22;5600;50.864;6.102;2022-10-18T17:04:33;14.10;99.90
11093;DHT22;5600;50.864;6.102;2022-10-18T17:07:33;14.00;99.90
11093;DHT22;5600;50.864;6.102;2022-10-18T17:10:34;13.90;99.90
11093;DHT22;5600;50.864;6.102;2022-10-18T17:13:35;13.80;99.90
11093;DHT22;5600;50.864;6.102;2022-10-18T17:16:36;13.70;99.90
11093;DHT22;5600;50.864;6.102;2022-10-18T17:19:38;13.70;99.90
11093;DHT22;5600;50.864;6.102;2022-10-18T17:22:38;13.50;99.90
11093;DHT22;5600;50.864;6.102;2022-10-18T17:25:40;13.50;99.90
11093;DHT22;5600;50.864;6.102;2022-10-18T17:28:44;13.40;99.90
11093;DHT22;5600;50.864;6.102;2022-10-18T17:31:44;14.00;99.90
11093;DHT22;5600;50.864;6.102;2022-10-18T17:34:45;13.20;99.90
11093;DHT22;5600;50.864;6.102;2022-10-18T17:37:47;13.20;99.90
11093;DHT22;5600;50.864;6.102;2022-10-18T17:40:49;13.10;99.90
11093;DHT22;5600;50.864;6.102;2022-10-18T17:43:52;13.00;99.90
11093;DHT22;5600;50.864;6.102;2022-10-18T17:46:52;13.00;99.90
11093;DHT22;5600;50.864;6.102;2022-10-18T17:49:53;12.90;99.90
11093;DHT22;5600;50.864;6.102;2022-10-18T17:52:54;12.90;99.90
11093;DHT22;5600;50.864;6.102;2022-10-18T17:55:58;12.80;99.90
11093;DHT22;5600;50.864;6.102;2022-10-18T17:59:00;12.70;99.90
11093;DHT22;5600;50.864;6.102;2022-10-18T18:02:01;12.70;99.90
11093;DHT22;5600;50.864;6.102;2022-10-18T18:05:03;12.60;99.90
11093;DHT22;5600;50.864;6.102;2022-10-18T18:08:04;12.50;99.90
11093;DHT22;5600;50.864;6.102;2022-10-18T18:11:04;12.40;99.90
11093;DHT22;5600;50.864;6.102;2022-10-18T18:14:06;12.40;99.90
11093;DHT22;5600;50.864;6.102;2022-10-18T18:17:08;12.40;99.90
11093;DHT22;5600;50.864;6.102;2022-10-18T18:20:09;12.30;99.90
11093;DHT22;5600;50.864;6.102;2022-10-18T18:23:10;12.20;99.90
11093;DHT22;5600;50.864;6.102;2022-10-18T18:26:11;12.10;99.90
11093;DHT22;5600;50.864;6.102;2022-10-18T18:29:12;12.00;99.90
11093;DHT22;5600;50.864;6.102;2022-10-18T18:32:15;11.90;99.90
11093;DHT22;5600;50.864;6.102;2022-10-18T18:35:17;11.90;99.90
11093;DHT22;5600;50.864;6.102;2022-10-18T18:38:17;11.80;99.90
11093;DHT22;5600;50.864;6.102;2022-10-18T18:41:20;11.80;99.90
11093;DHT22;5600;50.864;6.102;2022-10-18T18:44:21;11.70;99.90
11093;DHT22;5600;50.864;6.102;2022-10-18T18:47:22;11.70;99.90
11093;DHT22;5600;50.864;6.102;2022-10-18T18:50:23;11.60;99.90
11093;DHT22;5600;50.864;6.102;2022-10-18T18:53:24;11.60;99.90
11093;DHT22;5600;50.864;6.102;2022-10-18T18:56:26;11.50;99.90
11093;DHT22;5600;50.864;6.102;2022-10-18T18:59:28;11.50;99.90
11093;DHT22;5600;50.864;6.102;2022-10-18T19:02:28;11.40;99.90
11093;DHT22;5600;50.864;6.102;2022-10-18T19:05:29;11.40;99.90
11093;DHT22;5600;50.864;6.102;2022-10-18T19:08:33;11.30;99.90
11093;DHT22;5600;50.864;6.102;2022-10-18T19:11:36;11.30;99.90
11093;DHT22;5600;50.864;6.102;2022-10-18T19:14:38;11.20;99.90
11093;DHT22;5600;50.864;6.102;2022-10-18T19:17:38;11.20;99.90
11093;DHT22;5600;50.864;6.102;2022-10-18T19:20:39;11.10;99.90
11093;DHT22;5600;50.864;6.102;2022-10-18T19:23:39;11.00;99.90
11093;DHT22;5600;50.864;6.102;2022-10-18T19:26:54;11.00;99.90
11093;DHT22;5600;50.864;6.102;2022-10-18T19:29:56;11.00;99.90
11093;DHT22;5600;50.864;6.102;2022-10-18T19:32:56;10.90;99.90
11093;DHT22;5600;50.864;6.102;2022-10-18T19:36:03;10.80;99.90
11093;DHT22;5600;50.864;6.102;2022-10-18T19:39:06;10.80;99.90
11093;DHT22;5600;50.864;6.102;2022-10-18T19:42:10;10.80;99.90
11093;DHT22;5600;50.864;6.102;2022-10-18T19:45:12;10.70;99.90
11093;DHT22;5600;50.864;6.102;2022-10-18T19:48:12;10.70;99.90
11093;DHT22;5600;50.864;6.102;2022-10-18T19:51:13;10.70;99.90
11093;DHT22;5600;50.864;6.102;2022-10-18T19:54:14;10.70;99.90
11093;DHT22;5600;50.864;6.102;2022-10-18T19:57:15;10.70;99.90
11093;DHT22;5600;50.864;6.102;2022-10-18T20:00:16;10.60;99.90
11093;DHT22;5600;50.864;6.102;2022-10-18T20:03:16;10.60;99.90
11093;DHT22;5600;50.864;6.102;2022-10-18T20:06:17;10.50;99.90
11093;DHT22;5600;50.864;6.102;2022-10-18T20:09:18;10.40;99.90
11093;DHT22;5600;50.864;6.102;2022-10-18T20:12:20;10.40;99.90
11093;DHT22;5600;50.864;6.102;2022-10-18T20:15:21;10.30;99.90
11093;DHT22;5600;50.864;6.102;2022-10-18T20:18:22;10.20;99.90
11093;DHT22;5600;50.864;6.102;2022-10-18T20:21:23;10.20;99.90
11093;DHT22;5600;50.864;6.102;2022-10-18T20:24:24;10.20;99.90
11093;DHT22;5600;50.864;6.102;2022-10-18T20:27:24;10.10;99.90
11093;DHT22;5600;50.864;6.102;2022-10-18T20:30:25;10.10;99.90
11093;DHT22;5600;50.864;6.102;2022-10-18T20:33:26;10.10;99.90
11093;DHT22;5600;50.864;6.102;2022-10-18T20:36:29;10.00;99.90
11093;DHT22;5600;50.864;6.102;2022-10-18T20:39:30;10.00;99.90
11093;DHT22;5600;50.864;6.102;2022-10-18T20:42:30;10.00;99.90
11093;DHT22;5600;50.864;6.102;2022-10-18T20:45:31;9.90;99.90
11093;DHT22;5600;50.864;6.102;2022-10-18T20:48:32;9.90;99.90
11093;DHT22;5600;50.864;6.102;2022-10-18T20:51:34;9.80;99.90
11093;DHT22;5600;50.864;6.102;2022-10-18T20:54:35;9.80;99.90
11093;DHT22;5600;50.864;6.102;2022-10-18T20:57:35;9.70;99.90
11093;DHT22;5600;50.864;6.102;2022-10-18T21:00:36;9.70;99.90
11093;DHT22;5600;50.864;6.102;2022-10-18T21:03:38;9.70;99.90
11093;DHT22;5600;50.864;6.102;2022-10-18T21:06:42;9.60;99.90
11093;DHT22;5600;50.864;6.102;2022-10-18T21:09:43;9.60;99.90
11093;DHT22;5600;50.864;6.102;2022-10-18T21:12:46;9.50;99.90
11093;DHT22;5600;50.864;6.102;2022-10-18T21:15:53;9.50;99.90
11093;DHT22;5600;50.864;6.102;2022-10-18T21:18:54;9.50;99.90
11093;DHT22;5600;50.864;6.102;2022-10-18T21:21:56;9.40;99.90
11093;DHT22;5600;50.864;6.102;2022-10-18T21:24:57;9.40;99.90
11093;DHT22;5600;50.864;6.102;2022-10-18T21:27:57;9.40;99.90
11093;DHT22;5600;50.864;6.102;2022-10-18T21:31:12;9.30;99.90
11093;DHT22;5600;50.864;6.102;2022-10-18T21:34:15;9.20;99.90
11093;DHT22;5600;50.864;6.102;2022-10-18T21:37:16;9.20;99.90
11093;DHT22;5600;50.864;6.102;2022-10-18T21:40:17;9.10;99.90